createdAt,value
2022-09-13T00:00:01.556Z,995.91
2022-09-13T00:05:02.432Z,995.84
2022-09-13T00:10:02.189Z,995.74
2022-09-13T00:15:01.544Z,995.63
2022-09-13T00:20:01.546Z,995.61
2022-09-13T00:25:01.855Z,995.48
2022-09-13T00:30:01.723Z,995.38
2022-09-13T00:35:01.895Z,995.32
2022-09-13T00:40:02.014Z,995.47
2022-09-13T00:45:01.632Z,995.55
2022-09-13T00:50:02.162Z,995.5
2022-09-13T00:55:02.120Z,995.38
2022-09-13T01:00:02.207Z,995.34
2022-09-13T01:05:01.331Z,995.32
2022-09-13T01:10:03.143Z,995.36
2022-09-13T01:15:01.738Z,995.41
2022-09-13T01:20:01.932Z,995.48
2022-09-13T01:25:01.455Z,995.54
2022-09-13T01:30:02.111Z,995.48
2022-09-13T01:35:02.218Z,995.48
2022-09-13T01:40:01.924Z,995.45
2022-09-13T01:45:02.981Z,995.46
2022-09-13T01:50:01.379Z,995.46
2022-09-13T01:55:01.975Z,995.4
2022-09-13T02:00:01.282Z,995.42
2022-09-13T02:05:01.335Z,995.41
2022-09-13T02:10:01.880Z,995.32
2022-09-13T02:15:01.341Z,995.4
2022-09-13T02:20:01.185Z,995.38
2022-09-13T02:25:01.855Z,995.36
2022-09-13T02:30:01.605Z,995.2
2022-09-13T02:35:01.817Z,995.13
2022-09-13T02:40:02.105Z,995.09
2022-09-13T02:45:01.743Z,995.07
2022-09-13T02:50:01.462Z,995.01
2022-09-13T02:55:01.311Z,995
2022-09-13T03:00:01.914Z,995.03
2022-09-13T03:05:01.960Z,995.01
2022-09-13T03:10:01.823Z,995.01
2022-09-13T03:15:01.638Z,995.04
2022-09-13T03:20:01.393Z,995
2022-09-13T03:25:01.331Z,994.94
2022-09-13T03:30:01.373Z,994.94
2022-09-13T03:35:01.385Z,994.97
2022-09-13T03:40:01.663Z,994.88
2022-09-13T03:45:01.517Z,994.83
2022-09-13T03:50:01.994Z,994.79
2022-09-13T03:55:01.205Z,994.62
2022-09-13T04:00:01.321Z,994.54
2022-09-13T04:05:01.423Z,994.58
2022-09-13T04:10:01.573Z,994.65
2022-09-13T04:15:02.076Z,994.74
2022-09-13T04:20:01.306Z,994.92
2022-09-13T04:25:02.550Z,995.02
2022-09-13T04:30:02.021Z,995.07
2022-09-13T04:35:01.243Z,995.06
2022-09-13T04:40:01.277Z,995.08
2022-09-13T04:45:01.786Z,995.22
2022-09-13T04:50:01.249Z,995.25
2022-09-13T04:55:01.819Z,995.32
2022-09-13T05:00:01.606Z,995.28
2022-09-13T05:05:01.345Z,995.35
2022-09-13T05:10:01.728Z,995.4
2022-09-13T05:15:01.804Z,995.35
2022-09-13T05:20:01.434Z,995.25
2022-09-13T05:25:01.460Z,995.21
2022-09-13T05:30:01.181Z,995.12
2022-09-13T05:35:01.579Z,995.13
2022-09-13T05:40:11.593Z,995.23
2022-09-13T05:45:01.554Z,995.18
2022-09-13T05:50:10.237Z,995.29
2022-09-13T05:55:01.216Z,995.23
2022-09-13T06:00:01.206Z,995.15
2022-09-13T06:05:01.332Z,994.99
2022-09-13T06:10:01.980Z,995.01
2022-09-13T06:15:01.512Z,994.98
2022-09-13T06:20:01.688Z,994.95
2022-09-13T06:25:01.459Z,995.03
2022-09-13T06:30:01.835Z,995.07
2022-09-13T06:35:02.084Z,995.05
2022-09-13T06:40:02.180Z,995.15
2022-09-13T06:45:02.098Z,995.1
2022-09-13T06:50:01.367Z,995.06
2022-09-13T06:55:01.508Z,995.01
2022-09-13T07:00:01.849Z,994.97
2022-09-13T07:05:01.462Z,994.97
2022-09-13T07:10:01.233Z,994.99
2022-09-13T07:15:01.214Z,995
2022-09-13T07:20:02.106Z,995.06
2022-09-13T07:25:01.202Z,994.99
2022-09-13T07:30:01.650Z,994.95
2022-09-13T07:35:01.666Z,994.96
2022-09-13T07:40:01.828Z,995
2022-09-13T07:45:01.702Z,995.05
2022-09-13T07:50:01.187Z,995.07
2022-09-13T07:55:01.449Z,995.1
2022-09-13T08:00:01.900Z,995.23
2022-09-13T08:05:01.504Z,995.2
2022-09-13T08:10:02.061Z,995.09
2022-09-13T08:15:01.141Z,995.05
2022-09-13T08:20:01.211Z,994.99
2022-09-13T08:25:01.709Z,995
2022-09-13T08:30:01.716Z,995.01
2022-09-13T08:35:01.438Z,995.08
2022-09-13T08:40:01.843Z,995.1
2022-09-13T08:45:01.761Z,995.11
2022-09-13T08:50:01.317Z,995.06
2022-09-13T08:55:02.039Z,995.06
2022-09-13T09:00:02.069Z,995.09
2022-09-13T09:05:01.632Z,995.1
2022-09-13T09:10:01.497Z,995.16
2022-09-13T09:15:01.465Z,995.21
2022-09-13T09:20:01.551Z,995.3
2022-09-13T09:25:01.243Z,995.32
2022-09-13T09:30:01.900Z,995.41
2022-09-13T09:35:01.271Z,995.44
2022-09-13T09:40:01.628Z,995.42
2022-09-13T09:45:01.378Z,995.36
2022-09-13T09:50:02.102Z,995.3
2022-09-13T09:55:01.149Z,995.46
2022-09-13T10:00:01.185Z,995.48
2022-09-13T10:05:02.002Z,995.41
2022-09-13T10:10:01.398Z,995.37
2022-09-13T10:15:02.084Z,995.26
2022-09-13T10:20:01.768Z,995.3
2022-09-13T10:25:01.435Z,995.19
2022-09-13T10:30:01.517Z,995.12
2022-09-13T10:35:01.582Z,995.09
2022-09-13T10:40:01.687Z,995.04
2022-09-13T10:45:01.473Z,994.98
2022-09-13T10:50:01.740Z,994.92
2022-09-13T10:55:01.799Z,994.87
2022-09-13T11:00:01.414Z,994.82
2022-09-13T11:05:01.659Z,994.79
2022-09-13T11:10:01.921Z,994.74
2022-09-13T11:15:02.098Z,994.77
2022-09-13T11:20:01.405Z,994.65
2022-09-13T11:25:01.944Z,994.64
2022-09-13T11:30:01.471Z,994.66
2022-09-13T11:35:01.639Z,994.68
2022-09-13T11:40:01.341Z,994.59
2022-09-13T11:45:01.588Z,994.63
2022-09-13T11:50:01.952Z,994.74
2022-09-13T11:55:01.256Z,994.7
2022-09-13T12:00:01.667Z,994.7
2022-09-13T12:05:18.383Z,994.71
2022-09-13T12:10:01.612Z,994.67
2022-09-13T12:15:01.841Z,994.57
2022-09-13T12:20:01.749Z,994.52
2022-09-13T12:25:01.788Z,994.42
2022-09-13T12:30:01.971Z,994.4
2022-09-13T12:35:01.437Z,994.4
2022-09-13T12:40:01.587Z,994.32
2022-09-13T12:45:01.143Z,994.28
2022-09-13T12:50:09.715Z,994.3
2022-09-13T12:55:01.935Z,994.24
2022-09-13T13:00:01.353Z,994.18
2022-09-13T13:05:01.996Z,994.13
2022-09-13T13:10:01.547Z,994.08
2022-09-13T13:15:01.682Z,994.08
2022-09-13T13:20:01.770Z,994.08
2022-09-13T13:25:01.370Z,994.18
2022-09-13T13:30:02.180Z,994.16
2022-09-13T13:35:01.730Z,994.06
2022-09-13T13:40:02.151Z,994.03
2022-09-13T13:45:01.232Z,993.99
2022-09-13T13:50:01.998Z,993.92
2022-09-13T13:55:02.074Z,993.89
2022-09-13T14:00:01.337Z,993.84
2022-09-13T14:05:01.613Z,993.75
2022-09-13T14:10:01.298Z,993.76
2022-09-13T14:15:01.722Z,993.59
2022-09-13T14:20:02.045Z,993.59
2022-09-13T14:25:01.252Z,993.61
2022-09-13T14:30:02.038Z,993.56
2022-09-13T14:35:01.664Z,993.57
2022-09-13T14:40:02.072Z,993.62
2022-09-13T14:45:01.167Z,993.57
2022-09-13T14:50:01.405Z,993.52
2022-09-13T14:55:01.796Z,993.61
2022-09-13T15:00:02.100Z,993.7
2022-09-13T15:05:02.120Z,993.8
2022-09-13T15:10:02.124Z,993.71
2022-09-13T15:15:02.031Z,993.6
2022-09-13T15:20:02.140Z,993.62
2022-09-13T15:25:01.127Z,993.63
2022-09-13T15:30:01.221Z,993.55
2022-09-13T15:35:01.578Z,993.59
2022-09-13T15:40:01.490Z,993.6
2022-09-13T15:45:01.406Z,993.61
2022-09-13T15:50:02.016Z,993.62
2022-09-13T15:55:01.807Z,993.69
2022-09-13T16:00:06.344Z,993.75
2022-09-13T16:05:01.156Z,993.65
2022-09-13T16:10:01.884Z,993.68
2022-09-13T16:15:01.190Z,993.71
2022-09-13T16:20:01.493Z,993.77
2022-09-13T16:25:01.972Z,993.75
2022-09-13T16:30:01.423Z,993.79
2022-09-13T16:35:01.970Z,993.88
2022-09-13T16:40:01.423Z,993.92
2022-09-13T16:45:01.566Z,993.87
2022-09-13T16:50:01.627Z,993.94
2022-09-13T16:55:01.500Z,993.96
2022-09-13T17:00:01.338Z,993.92
2022-09-13T17:05:01.518Z,993.97
2022-09-13T17:10:01.619Z,994.01
2022-09-13T17:15:01.859Z,993.93
2022-09-13T17:20:01.458Z,994.02
2022-09-13T17:25:01.754Z,993.99
2022-09-13T17:30:07.098Z,994.01
2022-09-13T17:35:01.915Z,994.03
2022-09-13T17:40:02.032Z,994.02
2022-09-13T17:45:01.269Z,994
2022-09-13T17:50:01.420Z,994.04
2022-09-13T17:55:01.311Z,994.04
2022-09-13T18:00:02.077Z,994.06
2022-09-13T18:05:05.387Z,994.04
2022-09-13T18:10:02.019Z,994.1
2022-09-13T18:15:01.895Z,994.1
2022-09-13T18:20:02.011Z,994.19
2022-09-13T18:25:01.376Z,994.14
2022-09-13T18:30:01.636Z,994.25
2022-09-13T18:35:01.385Z,994.26
2022-09-13T18:40:01.639Z,994.23
2022-09-13T18:45:01.997Z,994.24
2022-09-13T18:50:01.588Z,994.08
2022-09-13T18:55:01.728Z,994.04
2022-09-13T19:00:01.166Z,994.03
2022-09-13T19:05:06.453Z,993.96
2022-09-13T19:10:01.514Z,993.96
2022-09-13T19:15:01.936Z,993.88
2022-09-13T19:20:01.402Z,993.93
2022-09-13T19:25:01.492Z,993.76
2022-09-13T19:30:01.534Z,993.56
2022-09-13T19:35:02.004Z,993.55
2022-09-13T19:40:02.152Z,993.58
2022-09-13T19:45:01.599Z,993.67
2022-09-13T19:50:01.741Z,993.85
2022-09-13T19:55:01.340Z,993.85
2022-09-13T20:00:01.874Z,993.69
2022-09-13T20:05:01.327Z,993.65
2022-09-13T20:10:02.040Z,993.53
2022-09-13T20:15:01.255Z,993.55
2022-09-13T20:20:01.938Z,993.59
2022-09-13T20:25:02.229Z,993.68
2022-09-13T20:30:01.399Z,993.66
2022-09-13T20:35:01.891Z,993.64
2022-09-13T20:40:01.583Z,993.61
2022-09-13T20:45:01.714Z,993.57
2022-09-13T20:50:02.100Z,993.6
2022-09-13T20:55:01.512Z,993.55
2022-09-13T21:00:01.359Z,993.46
2022-09-13T21:05:01.534Z,993.32
2022-09-13T21:10:01.390Z,993.27
2022-09-13T21:15:01.231Z,993.2
2022-09-13T21:20:01.541Z,993.14
2022-09-13T21:25:01.994Z,993.16
2022-09-13T21:30:01.759Z,993.14
2022-09-13T21:35:01.784Z,993.14
2022-09-13T21:40:01.848Z,993.14
2022-09-13T21:45:01.844Z,993.21
2022-09-13T21:50:01.825Z,993.12
2022-09-13T21:55:01.537Z,992.96
2022-09-13T22:00:01.654Z,992.93
2022-09-13T22:05:01.643Z,992.94
2022-09-13T22:10:01.678Z,992.99
2022-09-13T22:15:01.661Z,992.97
2022-09-13T22:20:01.777Z,992.96
2022-09-13T22:25:02.083Z,992.88
2022-09-13T22:30:01.451Z,992.83
2022-09-13T22:35:01.269Z,992.77
2022-09-13T22:40:01.275Z,992.57
2022-09-13T22:45:01.418Z,992.54
2022-09-13T22:50:01.891Z,992.61
2022-09-13T22:55:01.728Z,992.73
2022-09-13T23:00:02.069Z,992.7
2022-09-13T23:05:02.025Z,992.66
2022-09-13T23:10:01.831Z,992.66
2022-09-13T23:15:01.421Z,992.77
2022-09-13T23:20:01.333Z,992.76
2022-09-13T23:25:01.848Z,992.75
2022-09-13T23:30:01.608Z,992.7
2022-09-13T23:35:02.148Z,992.66
2022-09-13T23:40:01.335Z,992.69
2022-09-13T23:45:01.940Z,992.65
2022-09-13T23:50:01.804Z,992.67
2022-09-13T23:55:01.945Z,992.65
